sensor_id;sensor_type;location;lat;lon;timestamp;temperature;humidity
21039;DHT22;10678;51.002;4.786;2022-07-29T00:00:40;21.00;99.90
21039;DHT22;10678;51.002;4.786;2022-07-29T00:03:06;21.00;99.90
21039;DHT22;10678;51.002;4.786;2022-07-29T00:05:32;20.90;99.90
21039;DHT22;10678;51.002;4.786;2022-07-29T00:07:57;20.90;99.90
21039;DHT22;10678;51.002;4.786;2022-07-29T00:10:23;20.80;99.90
21039;DHT22;10678;51.002;4.786;2022-07-29T00:12:48;20.80;99.90
21039;DHT22;10678;51.002;4.786;2022-07-29T00:15:14;20.80;99.90
21039;DHT22;10678;51.002;4.786;2022-07-29T00:17:40;20.80;99.90
21039;DHT22;10678;51.002;4.786;2022-07-29T00:20:06;20.70;99.90
21039;DHT22;10678;51.002;4.786;2022-07-29T00:22:32;20.70;99.90
21039;DHT22;10678;51.002;4.786;2022-07-29T00:24:58;20.80;99.90
21039;DHT22;10678;51.002;4.786;2022-07-29T00:27:23;20.80;99.90
21039;DHT22;10678;51.002;4.786;2022-07-29T00:29:49;20.80;99.90
21039;DHT22;10678;51.002;4.786;2022-07-29T00:32:14;20.80;99.90
21039;DHT22;10678;51.002;4.786;2022-07-29T00:34:40;20.80;99.90
21039;DHT22;10678;51.002;4.786;2022-07-29T00:37:25;20.70;99.90
21039;DHT22;10678;51.002;4.786;2022-07-29T00:39:50;20.70;99.90
21039;DHT22;10678;51.002;4.786;2022-07-29T00:42:17;20.60;99.90
21039;DHT22;10678;51.002;4.786;2022-07-29T00:44:42;20.60;99.90
21039;DHT22;10678;51.002;4.786;2022-07-29T00:47:09;20.60;99.90
21039;DHT22;10678;51.002;4.786;2022-07-29T00:49:35;20.50;99.90
21039;DHT22;10678;51.002;4.786;2022-07-29T00:52:03;20.50;99.90
21039;DHT22;10678;51.002;4.786;2022-07-29T00:54:29;20.50;99.90
21039;DHT22;10678;51.002;4.786;2022-07-29T00:56:58;20.50;99.90
21039;DHT22;10678;51.002;4.786;2022-07-29T00:59:24;20.40;99.90
21039;DHT22;10678;51.002;4.786;2022-07-29T01:01:50;20.40;99.90
21039;DHT22;10678;51.002;4.786;2022-07-29T01:04:15;20.30;99.90
21039;DHT22;10678;51.002;4.786;2022-07-29T01:06:42;20.20;99.90
21039;DHT22;10678;51.002;4.786;2022-07-29T01:09:09;20.20;99.90
21039;DHT22;10678;51.002;4.786;2022-07-29T01:11:35;20.20;99.90
21039;DHT22;10678;51.002;4.786;2022-07-29T01:14:01;20.20;99.90
21039;DHT22;10678;51.002;4.786;2022-07-29T01:16:32;20.10;99.90
21039;DHT22;10678;51.002;4.786;2022-07-29T01:19:08;20.10;99.90
21039;DHT22;10678;51.002;4.786;2022-07-29T01:21:50;20.10;99.90
21039;DHT22;10678;51.002;4.786;2022-07-29T01:30:03;20.00;99.90
21039;DHT22;10678;51.002;4.786;2022-07-29T01:32:32;20.00;99.90
21039;DHT22;10678;51.002;4.786;2022-07-29T01:35:05;20.00;99.90
21039;DHT22;10678;51.002;4.786;2022-07-29T01:40:29;19.90;99.90
21039;DHT22;10678;51.002;4.786;2022-07-29T01:42:58;19.80;99.90
21039;DHT22;10678;51.002;4.786;2022-07-29T01:45:33;19.90;99.90
21039;DHT22;10678;51.002;4.786;2022-07-29T01:48:06;19.80;99.90
21039;DHT22;10678;51.002;4.786;2022-07-29T01:50:48;19.80;99.90
21039;DHT22;10678;51.002;4.786;2022-07-29T01:53:21;19.80;99.90
21039;DHT22;10678;51.002;4.786;2022-07-29T01:55:48;19.60;99.90
21039;DHT22;10678;51.002;4.786;2022-07-29T01:58:18;19.60;99.90
21039;DHT22;10678;51.002;4.786;2022-07-29T02:00:45;19.50;99.90
21039;DHT22;10678;51.002;4.786;2022-07-29T02:03:13;19.60;99.90
21039;DHT22;10678;51.002;4.786;2022-07-29T02:05:41;19.50;99.90
21039;DHT22;10678;51.002;4.786;2022-07-29T02:08:09;19.50;99.90
21039;DHT22;10678;51.002;4.786;2022-07-29T02:10:36;19.50;99.90
21039;DHT22;10678;51.002;4.786;2022-07-29T02:13:04;19.60;99.90
21039;DHT22;10678;51.002;4.786;2022-07-29T02:15:32;19.50;99.90
21039;DHT22;10678;51.002;4.786;2022-07-29T02:18:02;19.50;99.90
21039;DHT22;10678;51.002;4.786;2022-07-29T02:20:30;19.50;99.90
21039;DHT22;10678;51.002;4.786;2022-07-29T02:22:59;19.60;99.90
21039;DHT22;10678;51.002;4.786;2022-07-29T02:25:26;19.50;99.90
21039;DHT22;10678;51.002;4.786;2022-07-29T02:27:53;19.50;99.90
21039;DHT22;10678;51.002;4.786;2022-07-29T02:30:20;19.50;99.90
21039;DHT22;10678;51.002;4.786;2022-07-29T02:32:48;19.50;99.90
21039;DHT22;10678;51.002;4.786;2022-07-29T02:35:16;19.50;99.90
21039;DHT22;10678;51.002;4.786;2022-07-29T02:37:44;19.40;99.90
21039;DHT22;10678;51.002;4.786;2022-07-29T02:40:13;19.30;99.90
21039;DHT22;10678;51.002;4.786;2022-07-29T02:42:42;19.30;99.90
21039;DHT22;10678;51.002;4.786;2022-07-29T02:45:09;19.20;99.90
21039;DHT22;10678;51.002;4.786;2022-07-29T02:47:43;19.10;99.90
21039;DHT22;10678;51.002;4.786;2022-07-29T02:50:17;19.00;99.90
21039;DHT22;10678;51.002;4.786;2022-07-29T02:52:45;19.00;99.90
21039;DHT22;10678;51.002;4.786;2022-07-29T02:55:15;19.00;99.90
21039;DHT22;10678;51.002;4.786;2022-07-29T02:57:46;19.00;99.90
21039;DHT22;10678;51.002;4.786;2022-07-29T03:00:13;18.90;99.90
21039;DHT22;10678;51.002;4.786;2022-07-29T03:02:43;18.70;99.90
21039;DHT22;10678;51.002;4.786;2022-07-29T03:05:15;18.70;99.90
21039;DHT22;10678;51.002;4.786;2022-07-29T03:07:46;18.60;99.90
21039;DHT22;10678;51.002;4.786;2022-07-29T03:10:13;18.60;99.90
21039;DHT22;10678;51.002;4.786;2022-07-29T03:12:39;18.60;99.90
21039;DHT22;10678;51.002;4.786;2022-07-29T03:15:06;18.50;99.90
21039;DHT22;10678;51.002;4.786;2022-07-29T03:17:32;18.50;99.90
21039;DHT22;10678;51.002;4.786;2022-07-29T03:19:58;18.50;99.90
21039;DHT22;10678;51.002;4.786;2022-07-29T03:22:25;18.40;99.90
21039;DHT22;10678;51.002;4.786;2022-07-29T03:24:50;18.30;99.90
21039;DHT22;10678;51.002;4.786;2022-07-29T03:27:16;18.30;99.90
21039;DHT22;10678;51.002;4.786;2022-07-29T03:29:42;18.30;99.90
21039;DHT22;10678;51.002;4.786;2022-07-29T03:32:07;18.20;99.90
21039;DHT22;10678;51.002;4.786;2022-07-29T03:34:33;18.10;99.90
21039;DHT22;10678;51.002;4.786;2022-07-29T03:36:59;18.10;99.90
21039;DHT22;10678;51.002;4.786;2022-07-29T03:39:29;18.10;99.90
21039;DHT22;10678;51.002;4.786;2022-07-29T03:41:57;18.10;99.90
21039;DHT22;10678;51.002;4.786;2022-07-29T03:44:25;18.00;99.90
21039;DHT22;10678;51.002;4.786;2022-07-29T03:46:52;18.00;99.90
21039;DHT22;10678;51.002;4.786;2022-07-29T03:49:20;18.00;99.90
21039;DHT22;10678;51.002;4.786;2022-07-29T03:51:47;17.90;99.90
21039;DHT22;10678;51.002;4.786;2022-07-29T03:54:13;17.80;99.90
21039;DHT22;10678;51.002;4.786;2022-07-29T03:56:42;17.80;99.90
21039;DHT22;10678;51.002;4.786;2022-07-29T03:59:10;17.80;99.90
21039;DHT22;10678;51.002;4.786;2022-07-29T04:01:37;17.70;99.90
21039;DHT22;10678;51.002;4.786;2022-07-29T04:04:04;17.70;99.90
21039;DHT22;10678;51.002;4.786;2022-07-29T04:06:41;17.70;99.90
21039;DHT22;10678;51.002;4.786;2022-07-29T04:09:07;17.50;99.90
21039;DHT22;10678;51.002;4.786;2022-07-29T04:11:33;17.50;99.90
21039;DHT22;10678;51.002;4.786;2022-07-29T04:13:58;17.50;99.90
21039;DHT22;10678;51.002;4.786;2022-07-29T04:16:24;17.40;99.90
21039;DHT22;10678;51.002;4.786;2022-07-29T04:18:49;17.40;99.90
21039;DHT22;10678;51.002;4.786;2022-07-29T04:21:15;17.30;99.90
21039;DHT22;10678;51.002;4.786;2022-07-29T04:23:40;17.20;99.90
21039;DHT22;10678;51.002;4.786;2022-07-29T04:26:06;17.20;99.90
21039;DHT22;10678;51.002;4.786;2022-07-29T04:28:35;17.20;99.90
21039;DHT22;10678;51.002;4.786;2022-07-29T04:31:00;17.30;99.90
21039;DHT22;10678;51.002;4.786;2022-07-29T04:33:26;17.20;99.90
21039;DHT22;10678;51.002;4.786;2022-07-29T04:35:51;17.00;99.90
21039;DHT22;10678;51.002;4.786;2022-07-29T04:38:17;17.10;99.90
21039;DHT22;10678;51.002;4.786;2022-07-29T04:40:43;17.00;99.90
21039;DHT22;10678;51.002;4.786;2022-07-29T04:43:08;17.10;99.90
21039;DHT22;10678;51.002;4.786;2022-07-29T04:45:34;17.20;99.90
21039;DHT22;10678;51.002;4.786;2022-07-29T04:48:00;17.20;99.90
21039;DHT22;10678;51.002;4.786;2022-07-29T04:50:25;17.20;99.90
21039;DHT22;10678;51.002;4.786;2022-07-29T04:52:51;17.20;99.90
21039;DHT22;10678;51.002;4.786;2022-07-29T04:55:17;17.20;99.90
21039;DHT22;10678;51.002;4.786;2022-07-29T04:57:42;17.10;99.90
21039;DHT22;10678;51.002;4.786;2022-07-29T05:00:08;17.10;99.90
21039;DHT22;10678;51.002;4.786;2022-07-29T05:02:34;17.10;99.90
21039;DHT22;10678;51.002;4.786;2022-07-29T05:05:00;17.20;99.90
21039;DHT22;10678;51.002;4.786;2022-07-29T05:07:26;17.10;99.90
21039;DHT22;10678;51.002;4.786;2022-07-29T05:09:51;17.20;99.90
21039;DHT22;10678;51.002;4.786;2022-07-29T05:12:18;17.00;99.90
21039;DHT22;10678;51.002;4.786;2022-07-29T05:14:43;17.00;99.90
21039;DHT22;10678;51.002;4.786;2022-07-29T05:17:09;17.10;99.90
21039;DHT22;10678;51.002;4.786;2022-07-29T05:19:35;17.10;99.90
21039;DHT22;10678;51.002;4.786;2022-07-29T05:22:00;17.20;99.90
21039;DHT22;10678;51.002;4.786;2022-07-29T05:24:26;17.10;99.90
21039;DHT22;10678;51.002;4.786;2022-07-29T05:26:52;17.30;99.90
21039;DHT22;10678;51.002;4.786;2022-07-29T05:29:17;17.30;99.90
21039;DHT22;10678;51.002;4.786;2022-07-29T05:31:43;17.40;99.90
21039;DHT22;10678;51.002;4.786;2022-07-29T05:34:08;17.40;99.90
21039;DHT22;10678;51.002;4.786;2022-07-29T05:36:34;17.50;99.90
21039;DHT22;10678;51.002;4.786;2022-07-29T05:39:00;17.60;99.90
21039;DHT22;10678;51.002;4.786;2022-07-29T05:41:25;17.70;99.90
21039;DHT22;10678;51.002;4.786;2022-07-29T05:43:51;17.70;99.90
21039;DHT22;10678;51.002;4.786;2022-07-29T05:46:17;17.70;99.90
21039;DHT22;10678;51.002;4.786;2022-07-29T05:48:42;17.90;99.90
21039;DHT22;10678;51.002;4.786;2022-07-29T05:51:08;17.80;99.90
21039;DHT22;10678;51.002;4.786;2022-07-29T05:53:34;18.00;99.90
21039;DHT22;10678;51.002;4.786;2022-07-29T05:56:03;18.10;99.90
21039;DHT22;10678;51.002;4.786;2022-07-29T05:58:30;18.20;99.90
21039;DHT22;10678;51.002;4.786;2022-07-29T06:00:55;18.40;99.90
21039;DHT22;10678;51.002;4.786;2022-07-29T06:03:24;18.50;99.90
21039;DHT22;10678;51.002;4.786;2022-07-29T06:05:50;18.50;99.90
21039;DHT22;10678;51.002;4.786;2022-07-29T06:08:16;18.70;99.90
21039;DHT22;10678;51.002;4.786;2022-07-29T06:10:42;19.00;99.90
21039;DHT22;10678;51.002;4.786;2022-07-29T06:13:08;19.20;99.90
21039;DHT22;10678;51.002;4.786;2022-07-29T06:15:34;19.40;99.90
21039;DHT22;10678;51.002;4.786;2022-07-29T06:18:00;19.70;99.90
21039;DHT22;10678;51.002;4.786;2022-07-29T06:20:25;20.10;99.90
21039;DHT22;10678;51.002;4.786;2022-07-29T06:22:52;20.40;99.90
21039;DHT22;10678;51.002;4.786;2022-07-29T06:25:17;20.80;99.90
21039;DHT22;10678;51.002;4.786;2022-07-29T06:27:43;21.20;99.90
21039;DHT22;10678;51.002;4.786;2022-07-29T06:30:09;21.40;99.90
21039;DHT22;10678;51.002;4.786;2022-07-29T06:32:35;21.50;99.90
21039;DHT22;10678;51.002;4.786;2022-07-29T06:35:01;21.70;99.90
21039;DHT22;10678;51.002;4.786;2022-07-29T06:37:27;21.90;99.90
21039;DHT22;10678;51.002;4.786;2022-07-29T06:39:53;22.10;99.90
21039;DHT22;10678;51.002;4.786;2022-07-29T06:42:42;22.10;99.90
21039;DHT22;10678;51.002;4.786;2022-07-29T06:45:09;22.30;99.90
21039;DHT22;10678;51.002;4.786;2022-07-29T06:47:35;22.60;99.90
21039;DHT22;10678;51.002;4.786;2022-07-29T06:50:00;22.80;99.90
21039;DHT22;10678;51.002;4.786;2022-07-29T06:52:26;23.00;99.90
21039;DHT22;10678;51.002;4.786;2022-07-29T06:54:51;23.20;99.90
21039;DHT22;10678;51.002;4.786;2022-07-29T06:57:17;23.50;99.90
21039;DHT22;10678;51.002;4.786;2022-07-29T06:59:42;23.80;99.90
21039;DHT22;10678;51.002;4.786;2022-07-29T07:02:08;24.00;99.90
21039;DHT22;10678;51.002;4.786;2022-07-29T07:04:34;24.30;99.90
21039;DHT22;10678;51.002;4.786;2022-07-29T07:07:00;24.60;99.90
21039;DHT22;10678;51.002;4.786;2022-07-29T07:09:25;25.10;99.90
21039;DHT22;10678;51.002;4.786;2022-07-29T07:11:51;25.50;99.90
21039;DHT22;10678;51.002;4.786;2022-07-29T07:14:16;26.00;99.90
21039;DHT22;10678;51.002;4.786;2022-07-29T07:16:42;26.30;99.90
21039;DHT22;10678;51.002;4.786;2022-07-29T07:19:08;26.60;99.90
21039;DHT22;10678;51.002;4.786;2022-07-29T07:21:33;26.70;99.90
21039;DHT22;10678;51.002;4.786;2022-07-29T07:23:59;27.00;99.40
21039;DHT22;10678;51.002;4.786;2022-07-29T07:26:26;27.30;98.40
21039;DHT22;10678;51.002;4.786;2022-07-29T07:28:52;27.80;97.50
21039;DHT22;10678;51.002;4.786;2022-07-29T07:31:18;28.10;95.10
21039;DHT22;10678;51.002;4.786;2022-07-29T07:33:44;28.50;95.30
21039;DHT22;10678;51.002;4.786;2022-07-29T07:36:09;28.70;93.70
21039;DHT22;10678;51.002;4.786;2022-07-29T07:38:35;29.50;92.10
21039;DHT22;10678;51.002;4.786;2022-07-29T07:41:00;30.00;92.60
21039;DHT22;10678;51.002;4.786;2022-07-29T07:43:26;30.40;88.60
21039;DHT22;10678;51.002;4.786;2022-07-29T07:45:52;30.80;89.10
21039;DHT22;10678;51.002;4.786;2022-07-29T07:48:18;31.20;85.60
21039;DHT22;10678;51.002;4.786;2022-07-29T07:50:43;31.40;84.70
21039;DHT22;10678;51.002;4.786;2022-07-29T07:53:09;31.70;83.60
21039;DHT22;10678;51.002;4.786;2022-07-29T07:55:40;31.90;82.40
21039;DHT22;10678;51.002;4.786;2022-07-29T07:58:06;31.50;82.60
21039;DHT22;10678;51.002;4.786;2022-07-29T08:00:32;31.90;82.30
21039;DHT22;10678;51.002;4.786;2022-07-29T08:02:58;32.30;82.90
21039;DHT22;10678;51.002;4.786;2022-07-29T08:05:23;32.60;80.30
21039;DHT22;10678;51.002;4.786;2022-07-29T08:07:49;32.40;78.20
21039;DHT22;10678;51.002;4.786;2022-07-29T08:10:16;32.80;79.60
21039;DHT22;10678;51.002;4.786;2022-07-29T08:13:06;33.00;78.80
21039;DHT22;10678;51.002;4.786;2022-07-29T08:15:32;33.00;79.50
21039;DHT22;10678;51.002;4.786;2022-07-29T08:17:58;33.70;78.30
21039;DHT22;10678;51.002;4.786;2022-07-29T08:20:23;34.20;76.30
21039;DHT22;10678;51.002;4.786;2022-07-29T08:22:49;34.40;75.30
21039;DHT22;10678;51.002;4.786;2022-07-29T08:25:15;34.50;74.10
21039;DHT22;10678;51.002;4.786;2022-07-29T08:27:41;34.60;73.10
21039;DHT22;10678;51.002;4.786;2022-07-29T08:30:07;34.70;72.10
21039;DHT22;10678;51.002;4.786;2022-07-29T08:32:32;34.60;72.30
21039;DHT22;10678;51.002;4.786;2022-07-29T08:34:58;34.30;72.50
21039;DHT22;10678;51.002;4.786;2022-07-29T08:37:24;33.70;75.30
21039;DHT22;10678;51.002;4.786;2022-07-29T08:39:49;34.00;72.00
21039;DHT22;10678;51.002;4.786;2022-07-29T08:42:15;34.20;72.20
21039;DHT22;10678;51.002;4.786;2022-07-29T08:44:42;34.30;73.50
21039;DHT22;10678;51.002;4.786;2022-07-29T08:47:08;34.30;72.30
21039;DHT22;10678;51.002;4.786;2022-07-29T08:49:34;34.80;73.40
21039;DHT22;10678;51.002;4.786;2022-07-29T08:52:01;35.00;70.40
21039;DHT22;10678;51.002;4.786;2022-07-29T08:54:28;34.80;69.40
21039;DHT22;10678;51.002;4.786;2022-07-29T08:56:54;35.00;68.50
21039;DHT22;10678;51.002;4.786;2022-07-29T08:59:22;35.30;69.00
21039;DHT22;10678;51.002;4.786;2022-07-29T09:01:53;35.50;67.80
21039;DHT22;10678;51.002;4.786;2022-07-29T09:04:19;35.70;65.50
21039;DHT22;10678;51.002;4.786;2022-07-29T09:06:47;35.90;67.30
21039;DHT22;10678;51.002;4.786;2022-07-29T09:09:14;36.00;65.50
21039;DHT22;10678;51.002;4.786;2022-07-29T09:11:42;35.60;68.10
21039;DHT22;10678;51.002;4.786;2022-07-29T09:14:09;36.30;67.70
21039;DHT22;10678;51.002;4.786;2022-07-29T09:16:55;37.30;66.80
21039;DHT22;10678;51.002;4.786;2022-07-29T09:19:22;38.10;62.60
21039;DHT22;10678;51.002;4.786;2022-07-29T09:21:48;38.40;59.20
21039;DHT22;10678;51.002;4.786;2022-07-29T09:24:24;38.80;61.50
21039;DHT22;10678;51.002;4.786;2022-07-29T09:26:50;38.70;58.10
21039;DHT22;10678;51.002;4.786;2022-07-29T09:29:18;38.70;59.00
21039;DHT22;10678;51.002;4.786;2022-07-29T09:31:47;39.30;58.30
21039;DHT22;10678;51.002;4.786;2022-07-29T09:34:15;39.60;57.10
21039;DHT22;10678;51.002;4.786;2022-07-29T09:36:42;40.00;57.10
21039;DHT22;10678;51.002;4.786;2022-07-29T09:39:08;40.30;55.40
21039;DHT22;10678;51.002;4.786;2022-07-29T09:41:48;41.40;55.50
21039;DHT22;10678;51.002;4.786;2022-07-29T09:44:14;41.60;52.20
21039;DHT22;10678;51.002;4.786;2022-07-29T09:47:02;42.20;53.70
21039;DHT22;10678;51.002;4.786;2022-07-29T09:49:34;41.90;50.60
21039;DHT22;10678;51.002;4.786;2022-07-29T09:54:30;41.50;51.80
21039;DHT22;10678;51.002;4.786;2022-07-29T09:57:06;41.20;52.00
21039;DHT22;10678;51.002;4.786;2022-07-29T09:59:32;42.20;50.80
21039;DHT22;10678;51.002;4.786;2022-07-29T10:01:58;43.10;51.50
21039;DHT22;10678;51.002;4.786;2022-07-29T10:04:24;43.10;47.60
21039;DHT22;10678;51.002;4.786;2022-07-29T10:07:03;43.70;49.20
21039;DHT22;10678;51.002;4.786;2022-07-29T10:09:30;43.20;46.50
21039;DHT22;10678;51.002;4.786;2022-07-29T10:12:22;43.80;49.10
21039;DHT22;10678;51.002;4.786;2022-07-29T10:14:49;44.40;47.30
21039;DHT22;10678;51.002;4.786;2022-07-29T10:17:16;45.10;48.00
21039;DHT22;10678;51.002;4.786;2022-07-29T10:19:42;45.50;46.50
21039;DHT22;10678;51.002;4.786;2022-07-29T10:22:09;45.70;45.60
21039;DHT22;10678;51.002;4.786;2022-07-29T10:24:37;45.70;44.00
21039;DHT22;10678;51.002;4.786;2022-07-29T10:27:05;45.20;46.20
21039;DHT22;10678;51.002;4.786;2022-07-29T10:29:31;44.90;42.30
21039;DHT22;10678;51.002;4.786;2022-07-29T10:32:25;45.00;42.70
21039;DHT22;10678;51.002;4.786;2022-07-29T10:43:25;44.30;43.10
21039;DHT22;10678;51.002;4.786;2022-07-29T10:45:58;44.80;43.70
21039;DHT22;10678;51.002;4.786;2022-07-29T10:48:25;45.70;43.80
21039;DHT22;10678;51.002;4.786;2022-07-29T10:51:00;45.30;41.70
21039;DHT22;10678;51.002;4.786;2022-07-29T10:53:48;45.00;41.90
21039;DHT22;10678;51.002;4.786;2022-07-29T10:56:31;44.80;41.60
21039;DHT22;10678;51.002;4.786;2022-07-29T11:01:45;45.40;40.40
21039;DHT22;10678;51.002;4.786;2022-07-29T11:04:11;45.60;41.10
21039;DHT22;10678;51.002;4.786;2022-07-29T11:09:30;47.40;38.00
21039;DHT22;10678;51.002;4.786;2022-07-29T11:11:57;48.20;39.00
21039;DHT22;10678;51.002;4.786;2022-07-29T11:14:57;47.50;38.60
21039;DHT22;10678;51.002;4.786;2022-07-29T11:17:24;48.40;39.20
21039;DHT22;10678;51.002;4.786;2022-07-29T11:19:50;47.60;36.90
21039;DHT22;10678;51.002;4.786;2022-07-29T11:22:35;47.50;38.00
21039;DHT22;10678;51.002;4.786;2022-07-29T11:25:15;47.80;37.20
21039;DHT22;10678;51.002;4.786;2022-07-29T11:27:42;48.60;36.30
21039;DHT22;10678;51.002;4.786;2022-07-29T11:30:08;49.00;36.60
21039;DHT22;10678;51.002;4.786;2022-07-29T11:32:44;49.10;33.80
21039;DHT22;10678;51.002;4.786;2022-07-29T11:37:43;48.00;35.00
21039;DHT22;10678;51.002;4.786;2022-07-29T11:40:11;46.90;36.30
21039;DHT22;10678;51.002;4.786;2022-07-29T11:42:38;46.60;37.30
21039;DHT22;10678;51.002;4.786;2022-07-29T11:47:46;46.60;37.80
21039;DHT22;10678;51.002;4.786;2022-07-29T11:50:15;46.50;36.30
21039;DHT22;10678;51.002;4.786;2022-07-29T11:52:44;46.10;34.70
21039;DHT22;10678;51.002;4.786;2022-07-29T11:57:46;47.00;35.20
21039;DHT22;10678;51.002;4.786;2022-07-29T12:00:40;48.10;34.80
21039;DHT22;10678;51.002;4.786;2022-07-29T12:03:07;49.10;33.90
21039;DHT22;10678;51.002;4.786;2022-07-29T12:05:37;48.10;33.40
21039;DHT22;10678;51.002;4.786;2022-07-29T12:08:22;46.20;35.30
21039;DHT22;10678;51.002;4.786;2022-07-29T12:10:51;46.30;37.90
21039;DHT22;10678;51.002;4.786;2022-07-29T12:13:19;46.50;35.10
21039;DHT22;10678;51.002;4.786;2022-07-29T12:15:53;47.10;34.40
21039;DHT22;10678;51.002;4.786;2022-07-29T12:18:20;48.00;36.30
21039;DHT22;10678;51.002;4.786;2022-07-29T12:20:47;49.40;34.70
21039;DHT22;10678;51.002;4.786;2022-07-29T12:23:14;50.00;33.50
21039;DHT22;10678;51.002;4.786;2022-07-29T12:25:42;49.30;33.80
21039;DHT22;10678;51.002;4.786;2022-07-29T12:28:13;47.30;36.00
21039;DHT22;10678;51.002;4.786;2022-07-29T12:30:49;45.80;37.60
21039;DHT22;10678;51.002;4.786;2022-07-29T12:33:17;45.20;35.70
21039;DHT22;10678;51.002;4.786;2022-07-29T12:35:49;46.80;35.30
21039;DHT22;10678;51.002;4.786;2022-07-29T12:38:15;47.70;34.20
21039;DHT22;10678;51.002;4.786;2022-07-29T12:40:42;48.60;32.80
21039;DHT22;10678;51.002;4.786;2022-07-29T12:43:13;49.80;32.80
21039;DHT22;10678;51.002;4.786;2022-07-29T12:45:41;48.60;32.60
21039;DHT22;10678;51.002;4.786;2022-07-29T12:48:08;46.80;33.40
21039;DHT22;10678;51.002;4.786;2022-07-29T12:50:35;44.30;36.40
21039;DHT22;10678;51.002;4.786;2022-07-29T12:53:12;43.30;37.60
21039;DHT22;10678;51.002;4.786;2022-07-29T12:55:43;41.90;38.40
21039;DHT22;10678;51.002;4.786;2022-07-29T12:58:10;40.30;38.80
21039;DHT22;10678;51.002;4.786;2022-07-29T13:00:36;39.80;41.90
21039;DHT22;10678;51.002;4.786;2022-07-29T13:03:02;40.00;43.00
21039;DHT22;10678;51.002;4.786;2022-07-29T13:05:44;40.20;39.60
21039;DHT22;10678;51.002;4.786;2022-07-29T13:08:14;40.90;40.70
21039;DHT22;10678;51.002;4.786;2022-07-29T13:10:40;42.80;40.20
21039;DHT22;10678;51.002;4.786;2022-07-29T13:13:11;43.70;39.30
21039;DHT22;10678;51.002;4.786;2022-07-29T13:15:40;44.90;35.00
21039;DHT22;10678;51.002;4.786;2022-07-29T13:18:34;44.70;35.80
21039;DHT22;10678;51.002;4.786;2022-07-29T13:21:11;45.90;38.10
21039;DHT22;10678;51.002;4.786;2022-07-29T13:23:37;45.10;35.30
21039;DHT22;10678;51.002;4.786;2022-07-29T13:26:07;42.70;36.50
21039;DHT22;10678;51.002;4.786;2022-07-29T13:28:33;40.90;40.60
21039;DHT22;10678;51.002;4.786;2022-07-29T13:30:59;40.50;40.60
21039;DHT22;10678;51.002;4.786;2022-07-29T13:33:25;40.10;41.20
21039;DHT22;10678;51.002;4.786;2022-07-29T13:35:50;39.10;40.80
21039;DHT22;10678;51.002;4.786;2022-07-29T13:38:16;38.20;43.30
21039;DHT22;10678;51.002;4.786;2022-07-29T13:40:42;37.70;43.80
21039;DHT22;10678;51.002;4.786;2022-07-29T13:43:11;37.90;45.00
21039;DHT22;10678;51.002;4.786;2022-07-29T13:45:37;38.10;43.70
21039;DHT22;10678;51.002;4.786;2022-07-29T13:48:03;38.80;41.80
21039;DHT22;10678;51.002;4.786;2022-07-29T13:50:28;38.00;43.30
21039;DHT22;10678;51.002;4.786;2022-07-29T13:52:54;37.00;44.20
21039;DHT22;10678;51.002;4.786;2022-07-29T13:55:20;35.70;45.50
21039;DHT22;10678;51.002;4.786;2022-07-29T13:57:46;35.00;48.30
21039;DHT22;10678;51.002;4.786;2022-07-29T14:00:13;35.30;48.70
21039;DHT22;10678;51.002;4.786;2022-07-29T14:02:38;36.60;46.20
21039;DHT22;10678;51.002;4.786;2022-07-29T14:05:08;37.00;46.00
21039;DHT22;10678;51.002;4.786;2022-07-29T14:07:35;36.20;46.40
21039;DHT22;10678;51.002;4.786;2022-07-29T14:10:02;35.30;47.60
21039;DHT22;10678;51.002;4.786;2022-07-29T14:12:28;34.40;47.80
21039;DHT22;10678;51.002;4.786;2022-07-29T14:14:53;33.80;48.70
21039;DHT22;10678;51.002;4.786;2022-07-29T14:17:19;33.40;49.70
21039;DHT22;10678;51.002;4.786;2022-07-29T14:19:44;33.20;51.30
21039;DHT22;10678;51.002;4.786;2022-07-29T14:22:10;33.00;51.60
21039;DHT22;10678;51.002;4.786;2022-07-29T14:24:37;32.70;52.60
21039;DHT22;10678;51.002;4.786;2022-07-29T14:27:03;32.50;52.10
21039;DHT22;10678;51.002;4.786;2022-07-29T14:29:29;32.40;52.40
21039;DHT22;10678;51.002;4.786;2022-07-29T14:31:54;32.20;53.50
21039;DHT22;10678;51.002;4.786;2022-07-29T14:34:20;32.00;52.50
21039;DHT22;10678;51.002;4.786;2022-07-29T14:36:45;31.80;52.40
21039;DHT22;10678;51.002;4.786;2022-07-29T14:39:11;31.20;53.60
21039;DHT22;10678;51.002;4.786;2022-07-29T14:41:37;31.00;53.50
21039;DHT22;10678;51.002;4.786;2022-07-29T14:44:03;30.90;53.30
21039;DHT22;10678;51.002;4.786;2022-07-29T14:46:29;30.60;54.60
21039;DHT22;10678;51.002;4.786;2022-07-29T14:48:55;30.60;54.70
21039;DHT22;10678;51.002;4.786;2022-07-29T14:51:20;30.70;54.40
21039;DHT22;10678;51.002;4.786;2022-07-29T14:53:46;30.40;54.30
21039;DHT22;10678;51.002;4.786;2022-07-29T14:56:12;30.20;54.80
21039;DHT22;10678;51.002;4.786;2022-07-29T14:58:38;29.80;55.20
21039;DHT22;10678;51.002;4.786;2022-07-29T15:01:03;29.70;57.30
21039;DHT22;10678;51.002;4.786;2022-07-29T15:03:29;29.70;57.40
21039;DHT22;10678;51.002;4.786;2022-07-29T15:05:55;29.60;56.80
21039;DHT22;10678;51.002;4.786;2022-07-29T15:08:21;29.50;56.20
21039;DHT22;10678;51.002;4.786;2022-07-29T15:10:47;29.50;56.20
21039;DHT22;10678;51.002;4.786;2022-07-29T15:13:12;29.40;55.40
21039;DHT22;10678;51.002;4.786;2022-07-29T15:15:38;29.40;56.30
21039;DHT22;10678;51.002;4.786;2022-07-29T15:18:04;29.20;56.90
21039;DHT22;10678;51.002;4.786;2022-07-29T15:20:30;29.10;57.60
21039;DHT22;10678;51.002;4.786;2022-07-29T15:22:55;29.30;57.40
21039;DHT22;10678;51.002;4.786;2022-07-29T15:25:25;29.50;56.40
21039;DHT22;10678;51.002;4.786;2022-07-29T15:27:51;29.60;56.20
21039;DHT22;10678;51.002;4.786;2022-07-29T15:30:16;29.90;57.50
21039;DHT22;10678;51.002;4.786;2022-07-29T15:32:45;30.10;57.20
21039;DHT22;10678;51.002;4.786;2022-07-29T15:35:11;30.30;55.70
21039;DHT22;10678;51.002;4.786;2022-07-29T15:37:39;30.50;55.70
21039;DHT22;10678;51.002;4.786;2022-07-29T15:40:06;30.40;54.60
21039;DHT22;10678;51.002;4.786;2022-07-29T15:42:31;30.40;56.00
21039;DHT22;10678;51.002;4.786;2022-07-29T15:44:57;30.40;55.70
21039;DHT22;10678;51.002;4.786;2022-07-29T15:47:28;30.40;55.60
21039;DHT22;10678;51.002;4.786;2022-07-29T15:49:53;30.30;55.50
21039;DHT22;10678;51.002;4.786;2022-07-29T15:52:19;30.20;56.40
21039;DHT22;10678;51.002;4.786;2022-07-29T15:54:45;29.90;54.40
21039;DHT22;10678;51.002;4.786;2022-07-29T15:57:10;29.60;56.30
21039;DHT22;10678;51.002;4.786;2022-07-29T15:59:36;29.60;55.50
21039;DHT22;10678;51.002;4.786;2022-07-29T16:02:03;29.40;55.30
21039;DHT22;10678;51.002;4.786;2022-07-29T16:04:29;29.30;55.70
21039;DHT22;10678;51.002;4.786;2022-07-29T16:06:55;29.10;54.80